Time;durP1;ratioP1;P1;durP2;ratioP2;P2;SDS_P1;SDS_P2;PMS_P1;PMS_P2;Temp;Humidity;BMP_temperature;BMP_pressure;BME280_temperature;BME280_humidity;BME280_pressure;Samples;Min_cycle;Max_cycle;Signal;HPM_P1;HPM_P2
2022/06/30 00:00:18;;;;;;;10.82;5.05;;;;;;;;;;5026743;28;20052;-81
2022/06/30 00:02:44;;;;;;;10.50;5.50;;;;;;;;;;5026935;28;20084;-82
2022/06/30 00:05:10;;;;;;;11.45;5.40;;;;;;;;;;5025905;28;20121;-82
2022/06/30 00:07:36;;;;;;;11.90;5.35;;;;;;;;;;5026803;28;20076;-76
2022/06/30 00:10:02;;;;;;;;;;;;;;;;;;5026962;28;20404;-82
2022/06/30 00:12:28;;;;;;;10.68;5.90;;;;;;;;;;5027546;28;19933;-76
2022/06/30 00:14:54;;;;;;;;;;;;;;;;;;5026820;28;20435;-77
2022/06/30 00:17:20;;;;;;;13.38;6.22;;;;;;;;;;5027980;28;19983;-82
2022/06/30 00:19:46;;;;;;;;;;;;;;;;;;5025398;28;20432;-79
2022/06/30 00:22:13;;;;;;;21.77;6.28;;;;;;;;;;5027223;28;20028;-80
2022/06/30 00:24:39;;;;;;;13.43;6.20;;;;;;;;;;5025696;28;20045;-79
2022/06/30 00:27:06;;;;;;;10.60;6.05;;;;;;;;;;5028928;28;20120;-84
2022/06/30 00:29:32;;;;;;;13.80;6.15;;;;;;;;;;5024170;28;20202;-79
2022/06/30 00:31:58;;;;;;;11.38;5.75;;;;;;;;;;5028319;28;20076;-81
2022/06/30 00:34:24;;;;;;;;;;;;;;;;;;5025700;28;20045;-84
2022/06/30 00:36:50;;;;;;;12.93;6.55;;;;;;;;;;5027024;28;20270;-78
2022/06/30 00:39:16;;;;;;;12.23;6.63;;;;;;;;;;5026000;28;20159;-80
2022/06/30 00:41:42;;;;;;;;;;;;;;;;;;5026205;28;20089;-77
2022/06/30 00:44:12;;;;;;;12.30;6.38;;;;;;;;;;5026673;28;20058;-81
2022/06/30 00:46:39;;;;;;;13.45;6.55;;;;;;;;;;5026906;28;20347;-82
2022/06/30 00:49:06;;;;;;;12.13;6.78;;;;;;;;;;5027198;28;20038;-80
2022/06/30 00:51:32;;;;;;;11.35;6.53;;;;;;;;;;5026312;28;20109;-81
2022/06/30 00:53:58;;;;;;;;;;;;;;;;;;5026879;28;20354;-79
2022/06/30 00:56:26;;;;;;;13.60;6.20;;;;;;;;;;5024530;28;19948;-75
2022/06/30 00:58:53;;;;;;;12.10;6.55;;;;;;;;;;5027172;28;20140;-80
2022/06/30 01:01:19;;;;;;;12.15;6.82;;;;;;;;;;5025157;28;20068;-82
2022/06/30 01:03:45;;;;;;;;;;;;;;;;;;5027441;28;20525;-73
2022/06/30 01:06:11;;;;;;;14.40;6.72;;;;;;;;;;5026217;28;20071;-85
2022/06/30 01:08:37;;;;;;;10.93;6.05;;;;;;;;;;5026123;28;20034;-87
2022/06/30 01:13:49;;;;;;;11.30;5.88;;;;;;;;;;5026253;28;19952;-80
2022/06/30 01:16:16;;;;;;;13.02;5.93;;;;;;;;;;5026028;28;20124;-78
2022/06/30 01:18:42;;;;;;;10.88;5.82;;;;;;;;;;5027047;28;20053;-76
2022/06/30 01:21:08;;;;;;;;;;;;;;;;;;5024901;28;20152;-79
2022/06/30 01:23:34;;;;;;;13.15;5.85;;;;;;;;;;5026711;28;20012;-82
2022/06/30 01:26:00;;;;;;;;;;;;;;;;;;5025924;28;20107;-81
2022/06/30 01:28:26;;;;;;;11.70;5.70;;;;;;;;;;5025898;28;19925;-74
2022/06/30 01:30:52;;;;;;;11.25;5.45;;;;;;;;;;5026306;28;20080;-77
2022/06/30 01:33:18;;;;;;;;;;;;;;;;;;5029000;28;20349;-76
2022/06/30 01:35:44;;;;;;;11.43;5.30;;;;;;;;;;5029994;28;19940;-75
2022/06/30 01:38:10;;;;;;;;;;;;;;;;;;5031616;28;20041;-77
2022/06/30 01:40:37;;;;;;;12.35;5.53;;;;;;;;;;5031055;28;19975;-81
2022/06/30 01:43:11;;;;;;;12.25;5.40;;;;;;;;;;5027076;28;20050;-78
2022/06/30 01:45:37;;;;;;;10.43;5.00;;;;;;;;;;5029822;28;20465;-78
2022/06/30 01:48:05;;;;;;;11.98;5.10;;;;;;;;;;5030864;28;20504;-81
2022/06/30 01:50:31;;;;;;;10.45;5.20;;;;;;;;;;5030359;28;20050;-72
2022/06/30 01:52:58;;;;;;;10.00;5.18;;;;;;;;;;5028593;28;20042;-81
2022/06/30 01:55:24;;;;;;;12.63;5.22;;;;;;;;;;5027915;28;20432;-80
2022/06/30 01:57:50;;;;;;;11.43;5.10;;;;;;;;;;5025955;28;20090;-77
2022/06/30 02:00:21;;;;;;;10.98;5.10;;;;;;;;;;5029696;28;20045;-81
2022/06/30 02:02:50;;;;;;;10.90;5.05;;;;;;;;;;5029595;28;20125;-81
2022/06/30 02:05:16;;;;;;;11.90;5.22;;;;;;;;;;5028951;28;20045;-88
2022/06/30 02:07:42;;;;;;;10.90;5.32;;;;;;;;;;5029606;28;20151;-81
2022/06/30 02:10:10;;;;;;;12.32;5.63;;;;;;;;;;5011985;28;20114;-80
2022/06/30 02:12:45;;;;;;;11.40;5.80;;;;;;;;;;5027136;28;20131;-89
2022/06/30 02:15:13;;;;;;;12.20;5.40;;;;;;;;;;5028755;28;20049;-85
2022/06/30 02:17:39;;;;;;;11.48;5.80;;;;;;;;;;5029197;28;20126;-85
2022/06/30 02:20:07;;;;;;;11.55;5.80;;;;;;;;;;5029148;28;20049;-85
2022/06/30 02:22:33;;;;;;;11.45;5.60;;;;;;;;;;5029912;28;20068;-84
2022/06/30 02:24:59;;;;;;;12.75;5.97;;;;;;;;;;5028719;28;20060;-83
2022/06/30 02:27:25;;;;;;;;;;;;;;;;;;5029258;28;20122;-82
2022/06/30 02:29:52;;;;;;;12.75;6.07;;;;;;;;;;5031125;28;19958;-83
2022/06/30 02:32:19;;;;;;;10.35;5.70;;;;;;;;;;5030056;28;20120;-74
2022/06/30 02:34:45;;;;;;;13.48;6.32;;;;;;;;;;5029124;28;20053;-82
2022/06/30 02:37:11;;;;;;;;;;;;;;;;;;5029044;28;20139;-82
2022/06/30 02:39:37;;;;;;;12.25;5.70;;;;;;;;;;5029810;28;19929;-87
2022/06/30 02:42:03;;;;;;;;;;;;;;;;;;5030046;28;20511;-87
2022/06/30 02:44:29;;;;;;;11.93;5.68;;;;;;;;;;5029235;28;20080;-81
2022/06/30 02:46:55;;;;;;;12.60;6.38;;;;;;;;;;5028119;28;20496;-79
2022/06/30 02:49:21;;;;;;;;;;;;;;;;;;5044771;28;20053;-81
2022/06/30 02:51:47;;;;;;;12.60;6.25;;;;;;;;;;5026988;28;19979;-89
2022/06/30 02:54:14;;;;;;;13.93;6.10;;;;;;;;;;5029729;28;20045;-84
2022/06/30 02:56:39;;;;;;;;;;;;;;;;;;5026720;28;20045;-87
2022/06/30 02:59:06;;;;;;;13.48;6.00;;;;;;;;;;5026898;28;19932;-84
2022/06/30 03:01:32;;;;;;;;;;;;;;;;;;5027704;28;20272;-83
2022/06/30 03:03:59;;;;;;;14.13;6.60;;;;;;;;;;5029358;28;20004;-78
2022/06/30 03:06:26;;;;;;;11.15;5.55;;;;;;;;;;5027318;28;20061;-87
2022/06/30 03:08:52;;;;;;;12.48;5.60;;;;;;;;;;5028735;28;20520;-88
2022/06/30 03:11:18;;;;;;;14.27;6.60;;;;;;;;;;5027525;28;20510;-83
2022/06/30 03:13:45;;;;;;;;;;;;;;;;;;5029381;28;20139;-76
2022/06/30 03:16:11;;;;;;;12.43;6.45;;;;;;;;;;5027260;28;20317;-84
2022/06/30 03:18:37;;;;;;;14.00;6.20;;;;;;;;;;5026913;28;20064;-86
2022/06/30 03:21:04;;;;;;;15.25;6.88;;;;;;;;;;5027101;28;20141;-85
2022/06/30 03:23:29;;;;;;;;;;;;;;;;;;5026600;28;20173;-85
2022/06/30 03:25:56;;;;;;;11.52;6.65;;;;;;;;;;5027300;28;20403;-87
2022/06/30 03:28:21;;;;;;;;;;;;;;;;;;5026143;28;20060;-81
2022/06/30 03:30:48;;;;;;;11.98;6.55;;;;;;;;;;5042897;28;19925;-84
2022/06/30 03:33:17;;;;;;;11.93;6.85;;;;;;;;;;5024333;28;20152;-81
2022/06/30 03:35:44;;;;;;;13.15;6.78;;;;;;;;;;5027004;28;20502;-82
2022/06/30 03:38:10;;;;;;;14.27;6.68;;;;;;;;;;5023208;28;20123;-80
2022/06/30 03:40:36;;;;;;;12.45;6.57;;;;;;;;;;5028139;28;20135;-80
2022/06/30 03:43:03;;;;;;;11.07;6.15;;;;;;;;;;5040692;28;20045;-76
2022/06/30 03:45:29;;;;;;;14.10;7.10;;;;;;;;;;5027322;28;20053;-89
2022/06/30 03:47:56;;;;;;;11.82;6.55;;;;;;;;;;5026344;28;20093;-84
2022/06/30 03:50:22;;;;;;;12.13;6.57;;;;;;;;;;5026004;28;20049;-83
2022/06/30 03:52:48;;;;;;;;;;;;;;;;;;5025668;28;20136;-79
2022/06/30 03:55:14;;;;;;;13.75;7.03;;;;;;;;;;5026932;28;19933;-79
2022/06/30 03:57:40;;;;;;;15.35;6.90;;;;;;;;;;5026383;28;20404;-83
2022/06/30 04:00:07;;;;;;;20.63;6.38;;;;;;;;;;5023454;28;20759;-85
2022/06/30 04:02:33;;;;;;;11.82;6.47;;;;;;;;;;5024975;28;20065;-90
2022/06/30 04:04:59;;;;;;;14.18;6.90;;;;;;;;;;5026450;28;20049;-80
2022/06/30 04:07:25;;;;;;;12.70;7.28;;;;;;;;;;5024015;28;20056;-90
2022/06/30 04:09:51;;;;;;;13.30;6.97;;;;;;;;;;5029218;28;20072;-79
2022/06/30 04:12:17;;;;;;;13.85;6.88;;;;;;;;;;5024125;28;20049;-86
2022/06/30 04:14:43;;;;;;;;;;;;;;;;;;5026076;28;20346;-81
2022/06/30 04:17:09;;;;;;;15.57;7.45;;;;;;;;;;5026970;28;19921;-81
2022/06/30 04:19:37;;;;;;;13.30;7.50;;;;;;;;;;5025082;28;20045;-77
2022/06/30 04:22:03;;;;;;;15.48;7.57;;;;;;;;;;5024350;28;20102;-81
2022/06/30 04:24:29;;;;;;;12.27;6.88;;;;;;;;;;5025258;28;20528;-82
2022/06/30 04:26:55;;;;;;;15.50;7.40;;;;;;;;;;5028132;28;21691;-83
2022/06/30 04:29:21;;;;;;;13.35;6.57;;;;;;;;;;5024911;28;20508;-78
2022/06/30 04:34:33;;;;;;;15.48;7.30;;;;;;;;;;5026786;28;20191;-80
2022/06/30 04:36:58;;;;;;;;;;;;;;;;;;5030044;28;20085;-74
2022/06/30 04:39:25;;;;;;;14.52;6.80;;;;;;;;;;5030423;28;20074;-84
2022/06/30 04:41:51;;;;;;;13.52;7.07;;;;;;;;;;5029251;28;20084;-71
2022/06/30 04:44:17;;;;;;;;;;;;;;;;;;5042000;28;20056;-84
2022/06/30 04:46:43;;;;;;;14.05;7.25;;;;;;;;;;5028061;28;20389;-81
2022/06/30 04:49:10;;;;;;;14.80;7.32;;;;;;;;;;5027214;28;20417;-74
2022/06/30 04:51:36;;;;;;;12.93;6.85;;;;;;;;;;5029296;28;20057;-81
2022/06/30 04:54:02;;;;;;;11.73;6.63;;;;;;;;;;5027481;28;20480;-84
2022/06/30 04:56:30;;;;;;;12.70;6.65;;;;;;;;;;5026422;28;20408;-81
2022/06/30 04:58:57;;;;;;;13.75;7.35;;;;;;;;;;5024615;28;20049;-85
2022/06/30 05:01:23;;;;;;;;;;;;;;;;;;5031619;28;20467;-87
2022/06/30 05:03:49;;;;;;;14.07;6.68;;;;;;;;;;5034425;28;20003;-82
2022/06/30 05:06:15;;;;;;;13.20;6.97;;;;;;;;;;5026263;28;20129;-81
2022/06/30 05:08:41;;;;;;;;;;;;;;;;;;5019542;28;20147;-81
2022/06/30 05:11:07;;;;;;;13.27;7.65;;;;;;;;;;5017884;28;19929;-87
2022/06/30 05:13:33;;;;;;;12.07;7.40;;;;;;;;;;5024967;28;20049;-78
2022/06/30 05:15:59;;;;;;;14.85;7.63;;;;;;;;;;5023250;28;20119;-71
2022/06/30 05:18:26;;;;;;;13.10;7.78;;;;;;;;;;5022192;28;20045;-71
2022/06/30 05:20:53;;;;;;;12.52;7.38;;;;;;;;;;5026957;28;20049;-77
2022/06/30 05:23:19;;;;;;;13.48;7.47;;;;;;;;;;5022473;28;20400;-74
2022/06/30 05:28:29;;;;;;;13.55;8.30;;;;;;;;;;5020897;28;19921;-67
2022/06/30 05:30:56;;;;;;;14.35;8.23;;;;;;;;;;5024428;28;20050;-69
2022/06/30 05:33:22;;;;;;;17.48;7.88;;;;;;;;;;5024770;28;20056;-71
2022/06/30 05:35:49;;;;;;;17.52;8.25;;;;;;;;;;5024772;28;20128;-76
2022/06/30 05:38:15;;;;;;;17.52;8.35;;;;;;;;;;5023264;28;20141;-78
2022/06/30 05:40:42;;;;;;;14.90;8.55;;;;;;;;;;5021621;28;20049;-73
2022/06/30 05:43:11;;;;;;;19.90;8.40;;;;;;;;;;5025668;28;20120;-67
2022/06/30 05:45:41;;;;;;;17.20;8.00;;;;;;;;;;5023074;28;20123;-84
2022/06/30 05:48:08;;;;;;;19.88;8.18;;;;;;;;;;5026228;28;20159;-79
2022/06/30 05:50:34;;;;;;;17.10;8.18;;;;;;;;;;5023320;28;20123;-79
2022/06/30 05:53:00;;;;;;;;;;;;;;;;;;5024874;28;20038;-82
2022/06/30 05:55:26;;;;;;;17.13;9.13;;;;;;;;;;5024381;28;19943;-84
2022/06/30 05:57:56;;;;;;;19.55;10.18;;;;;;;;;;5021238;28;20374;-90
2022/06/30 06:00:25;;;;;;;19.70;9.65;;;;;;;;;;5021487;28;20181;-79
2022/06/30 06:02:51;;;;;;;21.00;10.20;;;;;;;;;;5022363;28;20060;-88
2022/06/30 06:05:17;;;;;;;18.30;10.18;;;;;;;;;;5020753;28;20358;-81
2022/06/30 06:07:44;;;;;;;18.38;9.43;;;;;;;;;;5022066;28;20041;-83
2022/06/30 06:10:10;;;;;;;20.52;9.82;;;;;;;;;;5025392;28;20061;-86
2022/06/30 06:12:37;;;;;;;17.80;10.73;;;;;;;;;;5023011;28;20085;-84
2022/06/30 06:15:04;;;;;;;18.20;9.23;;;;;;;;;;5026680;28;20148;-80
2022/06/30 06:17:30;;;;;;;20.95;9.88;;;;;;;;;;5025742;28;20067;-76
2022/06/30 06:19:57;;;;;;;16.67;8.90;;;;;;;;;;5024433;28;20075;-82
2022/06/30 06:22:23;;;;;;;14.73;9.07;;;;;;;;;;5028333;28;20045;-81
2022/06/30 06:24:49;;;;;;;;;;;;;;;;;;5027639;28;20053;-82
2022/06/30 06:27:15;;;;;;;14.73;8.38;;;;;;;;;;5027093;28;20001;-79
2022/06/30 06:29:41;;;;;;;15.10;8.35;;;;;;;;;;5028774;28;20494;-88
2022/06/30 06:32:07;;;;;;;15.60;8.02;;;;;;;;;;5026971;28;20075;-75
2022/06/30 06:34:33;;;;;;;20.00;7.72;;;;;;;;;;5025523;28;20053;-79
2022/06/30 06:36:59;;;;;;;;;;;;;;;;;;5028291;28;20095;-83
2022/06/30 06:39:25;;;;;;;13.15;7.20;;;;;;;;;;5042951;28;19925;-80
2022/06/30 06:41:51;;;;;;;;;;;;;;;;;;5026542;28;20409;-82
2022/06/30 06:44:17;;;;;;;17.10;7.20;;;;;;;;;;5028169;28;20019;-84
2022/06/30 06:46:44;;;;;;;13.27;7.93;;;;;;;;;;5026987;28;20646;-74
2022/06/30 06:49:10;;;;;;;14.57;7.28;;;;;;;;;;5029061;28;20448;-83
2022/06/30 06:51:36;;;;;;;;;;;;;;;;;;5028703;28;20473;-78
2022/06/30 06:54:02;;;;;;;13.30;7.43;;;;;;;;;;5025982;28;20075;-82
2022/06/30 06:56:28;;;;;;;;;;;;;;;;;;5027092;28;20065;-85
2022/06/30 06:58:54;;;;;;;13.48;7.63;;;;;;;;;;5027558;28;19921;-78
2022/06/30 07:01:20;;;;;;;19.05;7.93;;;;;;;;;;5028361;28;20052;-75
2022/06/30 07:03:46;;;;;;;;;;;;;;;;;;5029626;28;20041;-76
2022/06/30 07:06:12;;;;;;;12.75;7.00;;;;;;;;;;5048537;28;19969;-85
2022/06/30 07:08:38;;;;;;;14.05;7.40;;;;;;;;;;5033581;28;20432;-77
2022/06/30 07:11:05;;;;;;;14.00;7.93;;;;;;;;;;5027243;28;20150;-83
2022/06/30 07:13:32;;;;;;;14.52;7.63;;;;;;;;;;5026822;28;20052;-78
2022/06/30 07:15:59;;;;;;;15.00;7.45;;;;;;;;;;5027574;28;20060;-81
2022/06/30 07:18:25;;;;;;;16.48;7.10;;;;;;;;;;5029980;28;20067;-88
2022/06/30 07:20:51;;;;;;;;;;;;;;;;;;5027771;28;20049;-86
2022/06/30 07:23:17;;;;;;;14.77;6.75;;;;;;;;;;5026673;28;20250;-79
2022/06/30 07:25:43;;;;;;;;;;;;;;;;;;5025668;28;20155;-88
2022/06/30 07:28:09;;;;;;;13.25;6.70;;;;;;;;;;5028397;28;20373;-86
2022/06/30 07:30:35;;;;;;;;;;;;;;;;;;5026771;28;20077;-79
2022/06/30 07:33:01;;;;;;;15.02;8.05;;;;;;;;;;5026874;28;20003;-84
2022/06/30 07:35:27;;;;;;;;;;;;;;;;;;5027582;28;20122;-82
2022/06/30 07:37:53;;;;;;;18.85;7.50;;;;;;;;;;5027997;28;19927;-82
2022/06/30 07:40:19;;;;;;;;;;;;;;;;;;5026313;28;20049;-76
2022/06/30 07:42:48;;;;;;;15.38;7.30;;;;;;;;;;5026942;28;20003;-81
2022/06/30 07:45:14;;;;;;;;;;;;;;;;;;5028474;28;20122;-70
2022/06/30 07:47:46;;;;;;;15.02;7.70;;;;;;;;;;5027684;28;19925;-82
2022/06/30 07:50:12;;;;;;;12.60;7.50;;;;;;;;;;5026252;28;20124;-80
2022/06/30 07:52:38;;;;;;;15.32;8.40;;;;;;;;;;5024826;28;20065;-73
2022/06/30 07:55:05;;;;;;;14.80;8.07;;;;;;;;;;5027525;28;20439;-74
2022/06/30 07:57:31;;;;;;;16.38;7.28;;;;;;;;;;5025143;28;20111;-81
2022/06/30 07:59:57;;;;;;;13.65;7.30;;;;;;;;;;5021691;28;20040;-85
2022/06/30 08:02:24;;;;;;;14.63;6.97;;;;;;;;;;5028376;28;20128;-79
2022/06/30 08:04:50;;;;;;;14.77;8.20;;;;;;;;;;5026633;28;20066;-75
2022/06/30 08:07:16;;;;;;;12.80;7.80;;;;;;;;;;5027842;28;20526;-86
2022/06/30 08:09:42;;;;;;;13.32;8.40;;;;;;;;;;5026291;28;20156;-72
2022/06/30 08:12:09;;;;;;;15.18;8.65;;;;;;;;;;5023857;28;20041;-82
2022/06/30 08:14:35;;;;;;;16.05;8.00;;;;;;;;;;5022040;28;20452;-77
2022/06/30 08:17:01;;;;;;;14.55;8.45;;;;;;;;;;5027634;28;20045;-79
2022/06/30 08:19:27;;;;;;;15.68;8.45;;;;;;;;;;5027892;28;20095;-75
2022/06/30 08:21:53;;;;;;;14.90;9.05;;;;;;;;;;5026848;28;20041;-84
2022/06/30 08:24:19;;;;;;;15.77;8.80;;;;;;;;;;5037494;28;20080;-81
2022/06/30 08:26:45;;;;;;;15.50;9.40;;;;;;;;;;5023382;28;20059;-75
2022/06/30 08:29:12;;;;;;;;;;;;;;;;;;5030602;28;20057;-77
2022/06/30 08:31:38;;;;;;;;;;;;;;;;;;5035128;28;19948;-74
2022/06/30 08:34:06;;;;;;;13.70;8.15;;;;;;;;;;5024485;28;19929;-75
2022/06/30 08:36:32;;;;;;;27.13;9.27;;;;;;;;;;5031766;28;20136;-75
2022/06/30 08:38:58;;;;;;;14.43;7.82;;;;;;;;;;5030800;28;20037;-77
2022/06/30 08:44:09;;;;;;;19.83;10.35;;;;;;;;;;5025160;28;20076;-78
2022/06/30 08:46:37;;;;;;;19.25;8.98;;;;;;;;;;5025279;28;20123;-86
2022/06/30 08:49:03;;;;;;;17.17;9.98;;;;;;;;;;5029887;28;20167;-73
2022/06/30 08:51:30;;;;;;;15.55;9.25;;;;;;;;;;5030011;28;20094;-77
2022/06/30 08:54:00;;;;;;;15.10;8.65;;;;;;;;;;5029062;28;20468;-73
2022/06/30 08:56:30;;;;;;;16.70;9.95;;;;;;;;;;5028525;28;20058;-79
2022/06/30 08:58:56;;;;;;;15.65;8.15;;;;;;;;;;5030213;28;20068;-82
2022/06/30 09:01:23;;;;;;;14.25;8.30;;;;;;;;;;5031122;28;20037;-78
2022/06/30 09:03:54;;;;;;;15.82;9.85;;;;;;;;;;5027748;28;20102;-73
2022/06/30 09:06:20;;;;;;;15.38;8.80;;;;;;;;;;5028930;28;20404;-77
2022/06/30 09:08:48;;;;;;;17.08;9.20;;;;;;;;;;5025587;28;20048;-75
2022/06/30 09:11:14;;;;;;;14.98;9.65;;;;;;;;;;5031974;28;20077;-75
2022/06/30 09:13:44;;;;;;;14.18;9.05;;;;;;;;;;5050562;28;20048;-73
2022/06/30 09:16:10;;;;;;;17.85;8.50;;;;;;;;;;5029584;28;20057;-83
2022/06/30 09:18:37;;;;;;;17.73;9.70;;;;;;;;;;5030617;28;20049;-73
2022/06/30 09:21:16;;;;;;;17.25;8.82;;;;;;;;;;5020527;28;20045;-76
2022/06/30 09:23:44;;;;;;;14.60;9.07;;;;;;;;;;5025689;28;20050;-71
2022/06/30 09:26:15;;;;;;;15.43;8.60;;;;;;;;;;5025974;28;20045;-79
2022/06/30 09:28:43;;;;;;;15.27;9.70;;;;;;;;;;5025337;28;20132;-74
2022/06/30 09:31:09;;;;;;;17.33;9.40;;;;;;;;;;5025109;28;20050;-78
2022/06/30 09:33:39;;;;;;;14.40;9.48;;;;;;;;;;5024972;28;20036;-76
2022/06/30 09:36:18;;;;;;;18.17;9.68;;;;;;;;;;5024607;28;20941;-77
2022/06/30 09:39:01;;;;;;;14.73;9.48;;;;;;;;;;5025566;28;20041;-72
2022/06/30 09:41:28;;;;;;;16.45;10.48;;;;;;;;;;5024751;28;20053;-73
2022/06/30 09:43:54;;;;;;;17.58;10.18;;;;;;;;;;5026357;28;20117;-83
2022/06/30 09:46:21;;;;;;;15.65;8.95;;;;;;;;;;5025725;28;20558;-81
2022/06/30 09:48:47;;;;;;;18.67;10.07;;;;;;;;;;5025232;28;20108;-73
2022/06/30 09:51:13;;;;;;;17.60;9.52;;;;;;;;;;5023827;28;20344;-88
2022/06/30 09:53:40;;;;;;;15.68;10.60;;;;;;;;;;5026130;28;20167;-75
2022/06/30 09:56:14;;;;;;;16.15;9.48;;;;;;;;;;5030974;28;20614;-76
2022/06/30 09:58:42;;;;;;;16.77;10.70;;;;;;;;;;5029791;28;20045;-82
2022/06/30 10:01:08;;;;;;;16.73;9.57;;;;;;;;;;5029284;28;20048;-75
2022/06/30 10:03:35;;;;;;;16.65;10.15;;;;;;;;;;5028091;28;20136;-77
2022/06/30 10:06:08;;;;;;;16.45;10.18;;;;;;;;;;5023847;28;20127;-73
2022/06/30 10:08:35;;;;;;;15.23;10.02;;;;;;;;;;5029405;28;20157;-73
2022/06/30 10:11:01;;;;;;;18.50;10.70;;;;;;;;;;5026932;28;20046;-74
2022/06/30 10:13:28;;;;;;;17.92;11.02;;;;;;;;;;5025921;28;20040;-72
2022/06/30 10:15:55;;;;;;;17.58;11.25;;;;;;;;;;5028679;28;20525;-73
2022/06/30 10:18:26;;;;;;;16.13;10.45;;;;;;;;;;5028253;28;20124;-72
2022/06/30 10:20:52;;;;;;;14.27;9.60;;;;;;;;;;5027877;28;20144;-72
2022/06/30 10:23:19;;;;;;;16.67;11.00;;;;;;;;;;5023220;28;20128;-73
2022/06/30 10:25:47;;;;;;;17.02;12.45;;;;;;;;;;5028887;28;20362;-74
2022/06/30 10:28:15;;;;;;;19.30;10.63;;;;;;;;;;5027014;28;20212;-73
2022/06/30 10:30:48;;;;;;;16.60;10.55;;;;;;;;;;5028286;28;20355;-77
2022/06/30 10:33:31;;;;;;;18.42;11.70;;;;;;;;;;5028559;28;20076;-76
2022/06/30 10:36:00;;;;;;;18.25;11.68;;;;;;;;;;5033831;28;20442;-74
2022/06/30 10:38:41;;;;;;;16.35;11.15;;;;;;;;;;5031068;28;20056;-75
2022/06/30 10:41:12;;;;;;;18.67;10.95;;;;;;;;;;5017723;28;20380;-74
2022/06/30 10:43:56;;;;;;;14.55;9.93;;;;;;;;;;5028338;28;20129;-74
2022/06/30 10:46:22;;;;;;;19.67;11.45;;;;;;;;;;5027660;28;20505;-73
2022/06/30 10:48:50;;;;;;;16.27;11.50;;;;;;;;;;5028736;28;20053;-73
2022/06/30 10:51:16;;;;;;;19.45;14.00;;;;;;;;;;5028543;28;20037;-77
2022/06/30 10:53:42;;;;;;;16.52;12.10;;;;;;;;;;5042371;28;20038;-74
2022/06/30 10:56:09;;;;;;;19.88;12.70;;;;;;;;;;5027061;28;20037;-74
2022/06/30 10:58:35;;;;;;;17.38;11.80;;;;;;;;;;5026387;28;20065;-73
2022/06/30 11:01:05;;;;;;;20.52;12.40;;;;;;;;;;5026991;28;20116;-75
2022/06/30 11:03:32;;;;;;;17.90;11.75;;;;;;;;;;5024975;28;20037;-73
2022/06/30 11:06:01;;;;;;;21.00;13.02;;;;;;;;;;5025736;28;20121;-71
2022/06/30 11:08:39;;;;;;;17.90;12.48;;;;;;;;;;5028298;28;20061;-80
2022/06/30 11:11:23;;;;;;;18.88;12.65;;;;;;;;;;5026789;28;20041;-73
2022/06/30 11:13:52;;;;;;;17.65;12.48;;;;;;;;;;5027061;28;20160;-72
2022/06/30 11:16:19;;;;;;;19.35;13.98;;;;;;;;;;5026905;28;20132;-79
2022/06/30 11:18:46;;;;;;;19.27;13.45;;;;;;;;;;5027888;28;20112;-79
2022/06/30 11:21:12;;;;;;;17.77;12.35;;;;;;;;;;5024655;28;20045;-75
2022/06/30 11:23:41;;;;;;;19.92;12.63;;;;;;;;;;5027764;28;20053;-75
2022/06/30 11:28:54;;;;;;;23.65;13.95;;;;;;;;;;5027771;28;20061;-73
2022/06/30 11:31:24;;;;;;;20.38;14.90;;;;;;;;;;5028318;28;20059;-73
2022/06/30 11:33:51;;;;;;;22.40;14.80;;;;;;;;;;5028189;28;20385;-75
2022/06/30 11:36:17;;;;;;;23.85;14.88;;;;;;;;;;5025281;28;20049;-71
2022/06/30 11:38:43;;;;;;;26.90;16.05;;;;;;;;;;5025647;28;20042;-71
2022/06/30 11:43:54;;;;;;;26.67;19.20;;;;;;;;;;5028149;28;20115;-71
2022/06/30 11:46:21;;;;;;;24.20;17.50;;;;;;;;;;5028598;28;20880;-69
2022/06/30 11:48:47;;;;;;;23.65;15.85;;;;;;;;;;5024414;28;20404;-69
2022/06/30 11:51:13;;;;;;;24.67;16.88;;;;;;;;;;5027343;28;20042;-69
2022/06/30 11:53:40;;;;;;;25.60;17.02;;;;;;;;;;5027919;28;20354;-70
2022/06/30 11:56:06;;;;;;;24.88;18.27;;;;;;;;;;5027003;28;20215;-71
2022/06/30 11:58:32;;;;;;;21.33;16.40;;;;;;;;;;5023694;28;20106;-70
2022/06/30 12:00:58;;;;;;;21.38;16.70;;;;;;;;;;5024055;28;20133;-70
2022/06/30 12:03:25;;;;;;;27.80;20.23;;;;;;;;;;5026845;28;20085;-70
2022/06/30 12:05:53;;;;;;;27.20;20.58;;;;;;;;;;5027015;28;20064;-70
2022/06/30 12:08:19;;;;;;;27.05;19.58;;;;;;;;;;5027593;28;20125;-71
2022/06/30 12:10:45;;;;;;;24.60;20.13;;;;;;;;;;5027522;28;20060;-71
2022/06/30 12:13:11;;;;;;;23.35;17.67;;;;;;;;;;5015312;28;20068;-70
2022/06/30 12:15:37;;;;;;;27.40;20.20;;;;;;;;;;5027444;28;20350;-71
2022/06/30 12:18:04;;;;;;;21.52;17.73;;;;;;;;;;5024405;28;20065;-70
2022/06/30 12:20:31;;;;;;;24.02;18.95;;;;;;;;;;5024416;28;20073;-70
2022/06/30 12:22:57;;;;;;;23.42;18.63;;;;;;;;;;5026785;28;20064;-70
2022/06/30 12:25:24;;;;;;;26.20;20.33;;;;;;;;;;5026675;28;20049;-72
2022/06/30 12:27:51;;;;;;;24.52;18.90;;;;;;;;;;5026130;28;20577;-73
2022/06/30 12:30:24;;;;;;;23.83;18.05;;;;;;;;;;5025730;28;20081;-72
2022/06/30 12:32:55;;;;;;;22.15;17.33;;;;;;;;;;5026230;28;20056;-73
2022/06/30 12:35:22;;;;;;;19.90;14.85;;;;;;;;;;5023045;28;20099;-72
2022/06/30 12:37:48;;;;;;;19.75;14.70;;;;;;;;;;5025980;28;20045;-72
2022/06/30 12:40:20;;;;;;;21.70;15.38;;;;;;;;;;5026219;28;20041;-72
2022/06/30 12:42:47;;;;;;;18.98;14.93;;;;;;;;;;5024812;28;20461;-72
2022/06/30 12:45:32;;;;;;;20.02;14.85;;;;;;;;;;5025822;28;20087;-72
2022/06/30 12:47:58;;;;;;;19.77;14.57;;;;;;;;;;5025868;28;20045;-72
2022/06/30 12:50:24;;;;;;;21.65;14.05;;;;;;;;;;5025250;28;20132;-73
2022/06/30 12:52:50;;;;;;;19.63;14.77;;;;;;;;;;5024911;28;20080;-72
2022/06/30 12:55:16;;;;;;;20.58;16.08;;;;;;;;;;5025645;28;20096;-70
2022/06/30 12:57:45;;;;;;;22.80;17.58;;;;;;;;;;5025450;28;20060;-72
2022/06/30 13:00:12;;;;;;;22.13;18.48;;;;;;;;;;5007959;28;20053;-71
2022/06/30 13:02:39;;;;;;;24.23;18.08;;;;;;;;;;5025142;28;20041;-72
2022/06/30 13:05:10;;;;;;;25.02;17.38;;;;;;;;;;5025657;28;20210;-77
2022/06/30 13:07:37;;;;;;;22.27;17.60;;;;;;;;;;5025774;28;20053;-74
2022/06/30 13:10:04;;;;;;;22.95;17.02;;;;;;;;;;5024248;28;20103;-74
2022/06/30 13:12:30;;;;;;;24.00;18.75;;;;;;;;;;5021764;28;20907;-73
2022/06/30 13:14:56;;;;;;;26.27;20.70;;;;;;;;;;5022731;28;20450;-75
2022/06/30 13:17:22;;;;;;;27.00;22.00;;;;;;;;;;5024298;28;20049;-73
2022/06/30 13:19:48;;;;;;;28.42;22.52;;;;;;;;;;5024266;28;20049;-75
2022/06/30 13:22:15;;;;;;;29.05;22.05;;;;;;;;;;5025489;28;20596;-79
2022/06/30 13:24:41;;;;;;;30.38;22.88;;;;;;;;;;5026544;28;20090;-81
2022/06/30 13:27:12;;;;;;;35.10;25.60;;;;;;;;;;5022225;28;20050;-86
2022/06/30 13:29:38;;;;;;;29.92;23.45;;;;;;;;;;5026752;28;20049;-77
2022/06/30 13:32:04;;;;;;;32.13;23.65;;;;;;;;;;5030525;28;20046;-76
2022/06/30 13:34:32;;;;;;;30.63;22.80;;;;;;;;;;5025715;28;20153;-77
2022/06/30 13:36:58;;;;;;;32.83;20.90;;;;;;;;;;5042887;28;20045;-76
2022/06/30 13:39:24;;;;;;;29.27;20.25;;;;;;;;;;5030021;28;20045;-79
2022/06/30 13:41:50;;;;;;;29.38;20.42;;;;;;;;;;5037113;28;20083;-82
2022/06/30 13:44:16;;;;;;;30.02;24.25;;;;;;;;;;5024324;28;20477;-80
2022/06/30 13:46:43;;;;;;;26.70;20.35;;;;;;;;;;5029136;28;20136;-80
2022/06/30 13:49:09;;;;;;;24.17;19.10;;;;;;;;;;5027819;28;20041;-79
2022/06/30 13:51:35;;;;;;;28.05;19.30;;;;;;;;;;5027016;28;20540;-81
2022/06/30 13:54:02;;;;;;;29.52;21.80;;;;;;;;;;5029423;28;20041;-76
2022/06/30 13:56:28;;;;;;;31.92;24.02;;;;;;;;;;5028799;28;20061;-84
2022/06/30 13:58:55;;;;;;;31.55;26.13;;;;;;;;;;5027789;28;20045;-74
2022/06/30 14:01:21;;;;;;;34.50;27.00;;;;;;;;;;5011612;28;20090;-75
2022/06/30 14:03:48;;;;;;;33.95;25.58;;;;;;;;;;5029830;28;20037;-76
2022/06/30 14:06:14;;;;;;;31.98;24.55;;;;;;;;;;5028260;28;20083;-75
2022/06/30 14:08:40;;;;;;;30.63;23.73;;;;;;;;;;5027462;28;20050;-71
2022/06/30 14:11:06;;;;;;;31.52;22.98;;;;;;;;;;5029730;28;20109;-82
2022/06/30 14:13:32;;;;;;;30.33;20.52;;;;;;;;;;5028255;28;20056;-79
2022/06/30 14:15:58;;;;;;;28.90;19.55;;;;;;;;;;5028867;28;20152;-79
2022/06/30 14:18:25;;;;;;;24.70;19.58;;;;;;;;;;5028852;28;20059;-80
2022/06/30 14:20:51;;;;;;;26.42;19.58;;;;;;;;;;5029174;28;20123;-74
2022/06/30 14:23:17;;;;;;;27.63;18.42;;;;;;;;;;5025868;28;20102;-82
2022/06/30 14:25:43;;;;;;;25.35;17.08;;;;;;;;;;5027464;28;20067;-85
2022/06/30 14:28:09;;;;;;;24.33;14.85;;;;;;;;;;5024822;28;20069;-83
2022/06/30 14:30:36;;;;;;;25.25;14.93;;;;;;;;;;5027280;28;20083;-83
2022/06/30 14:33:02;;;;;;;25.85;15.77;;;;;;;;;;5025276;28;20046;-73
2022/06/30 14:35:29;;;;;;;26.50;17.63;;;;;;;;;;5029469;28;20049;-85
2022/06/30 14:37:55;;;;;;;27.73;19.23;;;;;;;;;;5029513;28;20103;-88
2022/06/30 14:40:21;;;;;;;27.90;17.55;;;;;;;;;;5028515;28;20053;-83
2022/06/30 14:42:48;;;;;;;26.92;18.08;;;;;;;;;;5026539;28;20198;-76
2022/06/30 14:45:19;;;;;;;27.02;17.98;;;;;;;;;;5029341;28;20049;-78
2022/06/30 14:47:50;;;;;;;24.83;17.15;;;;;;;;;;5022993;28;20045;-79
2022/06/30 14:50:16;;;;;;;26.27;19.48;;;;;;;;;;5029510;28;20053;-77
2022/06/30 14:52:43;;;;;;;24.67;18.50;;;;;;;;;;5029435;28;20041;-79